createdAt,value
2017-09-18T00:00:46.036Z,6.25
2017-09-18T00:03:27.808Z,7.43
2017-09-18T00:06:03.605Z,9.40
2017-09-18T00:08:38.154Z,7.15
2017-09-18T00:11:16.884Z,6.95
2017-09-18T00:14:05.047Z,6.75
2017-09-18T00:19:32.320Z,10.05
2017-09-18T00:22:07.525Z,8.38
2017-09-18T00:24:51.112Z,5.57
2017-09-18T00:27:28.807Z,6.30
2017-09-18T00:30:03.808Z,5.12
2017-09-18T00:32:40.183Z,4.68
2017-09-18T00:35:16.518Z,11.30
2017-09-18T00:37:58.223Z,6.20
2017-09-18T00:40:39.737Z,6.45
2017-09-18T00:43:13.992Z,8.57
2017-09-18T00:45:54.310Z,9.38
2017-09-18T00:48:31.422Z,9.93
2017-09-18T00:51:06.202Z,7.37
2017-09-18T00:53:43.070Z,7.40
2017-09-18T00:56:24.324Z,9.73
2017-09-18T00:59:00.066Z,6.00
2017-09-18T01:01:39.276Z,10.20
2017-09-18T01:04:15.713Z,14.57
2017-09-18T01:07:05.783Z,10.77
2017-09-18T01:09:48.132Z,16.00
2017-09-18T01:12:24.665Z,7.05
2017-09-18T01:15:00.113Z,6.87
2017-09-18T01:17:42.010Z,5.25
2017-09-18T01:20:21.805Z,7.05
2017-09-18T01:22:59.036Z,7.10
2017-09-18T01:25:40.189Z,7.55
2017-09-18T01:28:17.364Z,7.00
2017-09-18T01:30:52.607Z,6.50
2017-09-18T01:33:35.469Z,5.00
2017-09-18T01:36:10.112Z,7.95
2017-09-18T01:38:45.539Z,3.55
2017-09-18T01:41:21.580Z,5.35
2017-09-18T01:43:55.635Z,7.32
2017-09-18T01:46:32.271Z,5.50
2017-09-18T01:49:10.653Z,6.22
2017-09-18T01:51:46.321Z,9.02
2017-09-18T01:54:23.709Z,4.95
2017-09-18T01:56:58.205Z,5.65
2017-09-18T01:59:37.373Z,8.68
2017-09-18T02:02:13.216Z,7.35
2017-09-18T02:05:00.429Z,5.55
2017-09-18T02:07:39.822Z,6.90
2017-09-18T02:10:15.257Z,6.20
2017-09-18T02:12:52.071Z,7.75
2017-09-18T02:15:28.039Z,6.68
2017-09-18T02:18:05.975Z,7.45
2017-09-18T02:20:43.828Z,6.68
2017-09-18T02:23:21.737Z,6.80
2017-09-18T02:25:56.048Z,9.82
2017-09-18T02:28:31.073Z,7.90
2017-09-18T02:31:12.421Z,5.47
2017-09-18T02:33:54.974Z,5.80
2017-09-18T02:39:26.601Z,5.72
2017-09-18T02:42:03.900Z,7.70
2017-09-18T02:44:41.397Z,8.38
2017-09-18T02:47:22.358Z,8.55
2017-09-18T02:50:01.924Z,8.85
2017-09-18T02:52:38.387Z,9.52
2017-09-18T02:55:18.283Z,5.10
2017-09-18T02:57:56.773Z,10.95
2017-09-18T03:00:32.584Z,5.60
2017-09-18T03:03:11.316Z,6.53
2017-09-18T03:05:49.324Z,8.32
2017-09-18T03:08:27.427Z,4.12
2017-09-18T03:11:03.514Z,8.05
2017-09-18T03:16:34.402Z,4.85
2017-09-18T03:19:17.038Z,8.32
2017-09-18T03:21:55.345Z,6.60
2017-09-18T03:24:33.463Z,4.57
2017-09-18T03:27:11.084Z,3.75
2017-09-18T03:29:47.661Z,10.52
2017-09-18T03:32:26.724Z,7.65
2017-09-18T03:35:05.741Z,10.80
2017-09-18T03:37:45.111Z,9.02
2017-09-18T03:40:22.901Z,11.77
2017-09-18T03:43:02.059Z,9.57
2017-09-18T03:45:37.602Z,7.12
2017-09-18T03:48:12.725Z,5.20
2017-09-18T03:50:48.801Z,10.85
2017-09-18T03:53:25.717Z,6.20
2017-09-18T03:56:03.477Z,10.65
2017-09-18T03:58:44.123Z,3.80
2017-09-18T04:01:24.695Z,7.10
2017-09-18T04:04:01.924Z,9.20
2017-09-18T04:06:45.961Z,7.37
2017-09-18T04:09:23.190Z,5.50
2017-09-18T04:12:01.072Z,6.87
2017-09-18T04:14:49.355Z,7.82
2017-09-18T04:17:29.679Z,5.53
2017-09-18T04:22:49.807Z,8.40
2017-09-18T04:25:31.266Z,9.15
2017-09-18T04:28:17.445Z,10.43
2017-09-18T04:30:55.705Z,5.93
2017-09-18T04:33:38.594Z,5.37
2017-09-18T04:36:14.382Z,10.45
2017-09-18T04:41:32.626Z,5.72
2017-09-18T04:44:12.305Z,8.57
2017-09-18T04:46:47.230Z,6.10
2017-09-18T04:49:26.012Z,7.03
2017-09-18T04:52:01.479Z,6.37
2017-09-18T04:54:40.126Z,4.78
2017-09-18T04:57:17.846Z,5.12
2017-09-18T04:59:57.918Z,8.00
2017-09-18T05:02:34.242Z,12.00
2017-09-18T05:05:10.664Z,7.65
2017-09-18T05:07:51.611Z,6.87
2017-09-18T05:10:27.348Z,8.00
2017-09-18T05:13:04.718Z,14.05
2017-09-18T05:15:38.962Z,12.05
2017-09-18T05:18:16.749Z,8.52
2017-09-18T05:20:55.425Z,9.50
2017-09-18T05:23:34.265Z,8.63
2017-09-18T05:29:05.410Z,10.93
2017-09-18T05:31:40.333Z,11.48
2017-09-18T05:34:19.609Z,10.45
2017-09-18T05:36:55.402Z,13.62
2017-09-18T05:39:32.131Z,12.13
2017-09-18T05:42:16.465Z,12.37
2017-09-18T05:44:50.665Z,8.98
2017-09-18T05:47:30.230Z,12.10
2017-09-18T05:50:08.253Z,16.10
2017-09-18T05:52:50.609Z,15.15
2017-09-18T05:55:30.925Z,16.25
2017-09-18T05:58:15.955Z,24.08
2017-09-18T06:00:52.373Z,15.63
2017-09-18T06:03:28.905Z,16.12
2017-09-18T06:06:04.910Z,12.10
2017-09-18T06:08:40.411Z,12.20
2017-09-18T06:11:22.978Z,12.00
2017-09-18T06:13:57.704Z,7.12
2017-09-18T06:16:36.276Z,6.62
2017-09-18T06:19:11.119Z,12.93
2017-09-18T06:21:45.786Z,6.37
2017-09-18T06:24:27.746Z,5.72
2017-09-18T06:27:03.688Z,9.35
2017-09-18T06:32:28.721Z,11.18
2017-09-18T06:35:13.796Z,8.50
2017-09-18T06:37:53.691Z,13.13
2017-09-18T06:40:30.133Z,6.62
2017-09-18T06:43:06.248Z,7.70
2017-09-18T06:45:41.688Z,6.78
2017-09-18T06:48:19.069Z,9.38
2017-09-18T06:50:56.699Z,4.68
2017-09-18T06:53:34.411Z,7.65
2017-09-18T06:56:11.608Z,6.87
2017-09-18T06:58:47.019Z,6.72
2017-09-18T07:01:23.355Z,5.75
2017-09-18T07:04:07.612Z,6.68
2017-09-18T07:06:44.749Z,4.90
2017-09-18T07:09:20.186Z,25.42
2017-09-18T07:11:55.694Z,7.62
2017-09-18T07:14:29.849Z,10.30
2017-09-18T07:17:09.493Z,7.53
2017-09-18T07:19:48.832Z,12.15
2017-09-18T07:22:24.641Z,7.60
2017-09-18T07:25:02.818Z,8.73
2017-09-18T07:27:38.890Z,6.78
2017-09-18T07:30:16.340Z,9.23
2017-09-18T07:32:53.822Z,11.73
2017-09-18T07:35:32.120Z,11.75
2017-09-18T07:38:07.634Z,15.23
2017-09-18T07:40:51.614Z,9.57
2017-09-18T07:43:26.846Z,10.13
2017-09-18T07:46:04.437Z,9.68
2017-09-18T07:48:44.617Z,8.48
2017-09-18T07:54:11.711Z,5.37
2017-09-18T07:56:46.454Z,6.18
2017-09-18T08:02:09.400Z,4.68
2017-09-18T08:04:44.277Z,4.57
2017-09-18T08:07:18.137Z,4.82
2017-09-18T08:09:55.555Z,5.95
2017-09-18T08:12:32.921Z,10.13
2017-09-18T08:15:12.455Z,7.30
2017-09-18T08:17:49.233Z,3.58
2017-09-18T08:20:27.186Z,4.90
2017-09-18T08:23:05.417Z,6.35
2017-09-18T08:25:41.803Z,5.00
2017-09-18T08:28:16.149Z,6.50
2017-09-18T08:30:52.241Z,9.65
2017-09-18T08:33:32.664Z,8.23
2017-09-18T08:36:11.430Z,3.95
2017-09-18T08:39:01.679Z,6.12
2017-09-18T08:41:37.223Z,3.70
2017-09-18T08:44:18.707Z,5.90
2017-09-18T08:46:54.244Z,5.10
2017-09-18T08:49:31.249Z,3.97
2017-09-18T08:52:09.420Z,3.53
2017-09-18T08:54:46.375Z,2.65
2017-09-18T08:57:36.050Z,5.68
2017-09-18T09:00:12.371Z,4.97
2017-09-18T09:02:49.214Z,3.95
2017-09-18T09:05:26.096Z,7.05
2017-09-18T09:08:04.195Z,6.22
2017-09-18T09:10:53.862Z,7.35
2017-09-18T09:13:32.846Z,8.05
2017-09-18T09:16:09.290Z,4.62
2017-09-18T09:18:47.842Z,8.07
2017-09-18T09:21:24.518Z,9.00
2017-09-18T09:24:05.749Z,6.93
2017-09-18T09:26:42.595Z,6.10
2017-09-18T09:29:21.005Z,6.80
2017-09-18T09:31:56.228Z,3.17
2017-09-18T09:34:32.051Z,7.60
2017-09-18T09:37:09.575Z,4.60
2017-09-18T09:39:50.578Z,8.10
2017-09-18T09:42:26.756Z,8.40
2017-09-18T09:45:03.945Z,4.72
2017-09-18T09:47:44.975Z,7.30
2017-09-18T09:50:20.169Z,8.00
2017-09-18T09:53:02.496Z,5.60
2017-09-18T09:55:44.780Z,2.62
2017-09-18T09:58:20.859Z,4.28
2017-09-18T10:00:57.218Z,3.47
2017-09-18T10:03:34.707Z,6.15
2017-09-18T10:06:14.716Z,3.83
2017-09-18T10:08:50.070Z,5.22
2017-09-18T10:11:31.852Z,6.53
2017-09-18T10:18:42.658Z,6.05
2017-09-18T10:24:09.764Z,8.02
2017-09-18T10:26:46.005Z,8.00
2017-09-18T10:29:23.302Z,6.22
2017-09-18T10:32:00.215Z,3.65
2017-09-18T10:34:35.753Z,5.05
2017-09-18T10:37:14.226Z,5.03
2017-09-18T10:39:50.505Z,10.50
2017-09-18T10:42:36.757Z,8.32
2017-09-18T10:45:13.383Z,5.85
2017-09-18T10:47:48.547Z,4.93
2017-09-18T10:50:25.947Z,4.40
2017-09-18T10:53:06.046Z,6.25
2017-09-18T10:55:42.934Z,8.20
2017-09-18T10:58:18.569Z,6.40
2017-09-18T11:00:56.856Z,6.93
2017-09-18T11:03:31.957Z,6.07
2017-09-18T11:06:08.959Z,4.55
2017-09-18T11:08:48.210Z,3.78
2017-09-18T11:11:38.489Z,3.65
2017-09-18T11:14:16.605Z,7.68
2017-09-18T11:16:52.773Z,4.03
2017-09-18T11:19:34.777Z,8.02
2017-09-18T11:22:10.180Z,2.87
2017-09-18T11:24:48.892Z,6.05
2017-09-18T11:27:28.249Z,6.22
2017-09-18T11:30:07.139Z,5.85
2017-09-18T11:32:44.155Z,3.75
2017-09-18T11:35:24.371Z,8.80
2017-09-18T11:38:02.510Z,14.82
2017-09-18T11:40:38.450Z,11.55
2017-09-18T11:43:20.595Z,8.80
2017-09-18T11:45:55.531Z,6.07
2017-09-18T11:48:32.092Z,8.38
2017-09-18T11:51:12.135Z,4.28
2017-09-18T11:53:50.400Z,11.90
2017-09-18T11:56:25.730Z,6.93
2017-09-18T11:59:02.948Z,10.27
2017-09-18T12:04:31.384Z,4.80
2017-09-18T12:07:06.634Z,4.50
2017-09-18T12:09:58.701Z,7.80
2017-09-18T12:12:35.365Z,7.18
2017-09-18T12:15:09.953Z,9.55
2017-09-18T12:17:44.107Z,9.18
2017-09-18T12:20:23.874Z,4.50
2017-09-18T12:22:59.690Z,9.10
2017-09-18T12:25:51.794Z,8.93
2017-09-18T12:28:32.895Z,4.00
2017-09-18T12:31:07.909Z,5.68
2017-09-18T12:33:49.570Z,8.73
2017-09-18T12:36:25.593Z,6.43
2017-09-18T12:39:00.914Z,2.47
2017-09-18T12:41:37.880Z,6.68
2017-09-18T12:44:14.188Z,3.87
2017-09-18T12:46:57.458Z,8.65
2017-09-18T12:49:34.185Z,6.37
2017-09-18T12:52:10.483Z,4.85
2017-09-18T12:54:46.512Z,5.72
2017-09-18T12:57:21.970Z,7.25
2017-09-18T12:59:56.006Z,4.25
2017-09-18T13:02:35.296Z,4.82
2017-09-18T13:05:10.456Z,7.47
2017-09-18T13:07:49.599Z,4.72
2017-09-18T13:10:26.305Z,6.07
2017-09-18T13:13:00.337Z,8.00
2017-09-18T13:15:34.918Z,5.15
2017-09-18T13:20:54.237Z,3.35
2017-09-18T13:23:29.253Z,5.20
2017-09-18T13:26:04.857Z,5.53
2017-09-18T13:28:42.069Z,6.85
2017-09-18T13:31:16.229Z,4.47
2017-09-18T13:33:54.614Z,5.55
2017-09-18T13:36:32.524Z,8.75
2017-09-18T13:39:07.511Z,11.70
2017-09-18T13:41:45.050Z,6.30
2017-09-18T13:44:22.925Z,5.55
2017-09-18T13:47:02.073Z,5.55
2017-09-18T13:49:38.778Z,6.60
2017-09-18T13:52:13.949Z,5.95
2017-09-18T13:54:52.201Z,11.65
2017-09-18T13:57:36.426Z,8.55
2017-09-18T14:00:11.782Z,7.32
2017-09-18T14:02:48.166Z,5.68
2017-09-18T14:05:26.556Z,7.57
2017-09-18T14:08:03.402Z,11.98
2017-09-18T14:10:40.630Z,8.45
2017-09-18T14:13:21.227Z,5.87
2017-09-18T14:15:56.194Z,7.37
2017-09-18T14:18:35.281Z,7.97
2017-09-18T14:21:22.497Z,5.50
2017-09-18T14:23:58.407Z,3.15
2017-09-18T14:26:42.588Z,5.72
2017-09-18T14:29:17.080Z,4.75
2017-09-18T14:31:56.840Z,9.63
2017-09-18T14:34:34.152Z,6.68
2017-09-18T14:37:11.676Z,8.23
2017-09-18T14:39:47.392Z,4.70
2017-09-18T14:42:27.212Z,5.97
2017-09-18T14:45:03.431Z,4.47
2017-09-18T14:47:40.740Z,5.07
2017-09-18T14:50:14.758Z,7.40
2017-09-18T14:52:55.242Z,4.85
2017-09-18T14:55:31.394Z,6.87
2017-09-18T14:58:09.228Z,7.90
2017-09-18T15:00:44.644Z,5.62
2017-09-18T15:03:19.612Z,5.30
2017-09-18T15:06:06.364Z,6.80
2017-09-18T15:08:44.556Z,7.37
2017-09-18T15:11:20.515Z,9.18
2017-09-18T15:13:56.503Z,4.95
2017-09-18T15:16:36.270Z,9.85
2017-09-18T15:19:11.486Z,6.10
2017-09-18T15:21:49.079Z,10.30
2017-09-18T15:24:32.372Z,5.95
2017-09-18T15:27:10.187Z,6.12
2017-09-18T15:29:45.769Z,6.12
2017-09-18T15:32:19.771Z,5.72
2017-09-18T15:34:58.344Z,7.97
2017-09-18T15:37:34.907Z,11.23
2017-09-18T15:40:11.911Z,8.25
2017-09-18T15:42:47.859Z,9.30
2017-09-18T15:45:22.004Z,4.57
2017-09-18T15:48:00.393Z,8.88
2017-09-18T15:50:36.197Z,24.42
2017-09-18T15:53:11.267Z,11.32
2017-09-18T15:55:46.781Z,9.10
2017-09-18T15:58:24.007Z,11.55
2017-09-18T16:01:12.466Z,8.23
2017-09-18T16:03:48.013Z,5.62
2017-09-18T16:06:22.090Z,4.47
2017-09-18T16:08:58.904Z,6.62
2017-09-18T16:11:34.253Z,4.68
2017-09-18T16:14:09.933Z,4.18
2017-09-18T16:16:45.689Z,7.43
2017-09-18T16:19:21.455Z,6.62
2017-09-18T16:21:57.054Z,8.43
2017-09-18T16:24:35.782Z,13.05
2017-09-18T16:27:11.338Z,11.12
2017-09-18T16:29:45.465Z,11.77
2017-09-18T16:32:20.112Z,12.25
2017-09-18T16:34:54.935Z,4.97
2017-09-18T16:37:30.073Z,4.30
2017-09-18T16:40:06.368Z,5.75
2017-09-18T16:42:42.972Z,5.85
2017-09-18T16:45:19.377Z,7.20
2017-09-18T16:47:53.534Z,8.88
2017-09-18T16:50:28.401Z,13.50
2017-09-18T16:53:09.277Z,12.57
2017-09-18T16:55:49.704Z,11.15
2017-09-18T16:58:29.560Z,9.93
2017-09-18T17:01:06.601Z,11.35
2017-09-18T17:03:43.603Z,8.63
2017-09-18T17:06:19.079Z,9.60
2017-09-18T17:08:55.480Z,10.68
2017-09-18T17:11:31.631Z,35.88
2017-09-18T17:14:07.516Z,12.05
2017-09-18T17:16:47.011Z,10.98
2017-09-18T17:19:23.441Z,12.25
2017-09-18T17:21:58.970Z,9.00
2017-09-18T17:24:35.260Z,11.27
2017-09-18T17:27:13.296Z,13.43
2017-09-18T17:29:50.555Z,8.73
2017-09-18T17:32:24.724Z,8.60
2017-09-18T17:35:00.537Z,6.87
2017-09-18T17:37:37.116Z,7.22
2017-09-18T17:40:12.949Z,8.02
2017-09-18T17:42:49.754Z,8.32
2017-09-18T17:45:23.628Z,10.50
2017-09-18T17:47:57.452Z,25.90
2017-09-18T17:50:36.595Z,21.12
2017-09-18T17:53:14.043Z,25.85
2017-09-18T17:55:48.059Z,42.90
2017-09-18T17:58:26.512Z,35.38
2017-09-18T18:01:01.874Z,31.48
2017-09-18T18:03:36.016Z,20.15
2017-09-18T18:06:12.480Z,16.45
2017-09-18T18:08:50.035Z,18.23
2017-09-18T18:11:24.743Z,14.68
2017-09-18T18:18:18.033Z,11.93
2017-09-18T18:20:54.792Z,12.25
2017-09-18T18:23:29.711Z,11.98
2017-09-18T18:26:04.541Z,13.95
2017-09-18T18:28:42.050Z,13.35
2017-09-18T18:31:16.840Z,9.00
2017-09-18T18:33:50.826Z,5.12
2017-09-18T18:36:27.797Z,8.15
2017-09-18T18:39:02.143Z,7.97
2017-09-18T18:41:39.719Z,7.75
2017-09-18T18:44:16.633Z,7.53
2017-09-18T18:46:51.323Z,7.95
2017-09-18T18:49:26.393Z,7.82
2017-09-18T18:52:00.363Z,7.50
2017-09-18T18:54:35.405Z,6.62
2017-09-18T18:57:10.477Z,8.48
2017-09-18T18:59:46.061Z,11.25
2017-09-18T19:02:23.983Z,9.50
2017-09-18T19:04:59.557Z,9.98
2017-09-18T19:07:34.144Z,7.47
2017-09-18T19:10:08.270Z,10.77
2017-09-18T19:12:43.057Z,10.02
2017-09-18T19:15:18.338Z,12.63
2017-09-18T19:17:53.914Z,11.23
2017-09-18T19:20:30.789Z,10.25
2017-09-18T19:23:12.500Z,8.85
2017-09-18T19:25:48.846Z,9.02
2017-09-18T19:28:23.411Z,9.70
2017-09-18T19:30:58.202Z,14.70
2017-09-18T19:33:32.858Z,9.52
2017-09-18T19:36:08.074Z,9.90
2017-09-18T19:38:42.839Z,8.82
2017-09-18T19:41:16.905Z,13.13
2017-09-18T19:43:50.868Z,8.30
2017-09-18T19:46:28.225Z,6.78
2017-09-18T19:49:06.477Z,7.70
2017-09-18T19:51:40.724Z,8.45
2017-09-18T19:54:15.968Z,6.57
2017-09-18T19:56:51.749Z,8.40
2017-09-18T19:59:25.649Z,9.02
2017-09-18T20:02:00.179Z,7.53
2017-09-18T20:04:38.128Z,9.00
2017-09-18T20:07:13.340Z,6.45
2017-09-18T20:09:47.203Z,9.15
2017-09-18T20:12:24.476Z,9.05
2017-09-18T20:14:59.638Z,9.85
2017-09-18T20:17:37.246Z,8.38
2017-09-18T20:20:18.088Z,8.60
2017-09-18T20:22:58.231Z,7.80
2017-09-18T20:25:34.832Z,7.53
2017-09-18T20:28:09.573Z,6.95
2017-09-18T20:30:47.434Z,6.80
2017-09-18T20:33:27.514Z,8.45
2017-09-18T20:36:02.406Z,7.80
2017-09-18T20:38:42.080Z,9.18
2017-09-18T20:41:16.707Z,6.18
2017-09-18T20:43:55.951Z,7.93
2017-09-18T20:46:34.118Z,7.18
2017-09-18T20:49:08.306Z,9.48
2017-09-18T20:51:42.379Z,10.07
2017-09-18T20:54:20.573Z,8.65
2017-09-18T20:56:56.472Z,7.05
2017-09-18T20:59:32.699Z,6.78
2017-09-18T21:02:10.663Z,5.55
2017-09-18T21:04:47.968Z,6.78
2017-09-18T21:07:23.708Z,8.30
2017-09-18T21:09:58.132Z,9.25
2017-09-18T21:12:33.357Z,5.28
2017-09-18T21:15:08.334Z,9.82
2017-09-18T21:17:43.011Z,6.95
2017-09-18T21:20:19.188Z,7.95
2017-09-18T21:22:55.283Z,4.78
2017-09-18T21:25:30.609Z,6.25
2017-09-18T21:28:05.669Z,5.45
2017-09-18T21:30:42.417Z,6.40
2017-09-18T21:33:20.961Z,6.03
2017-09-18T21:35:58.849Z,9.93
2017-09-18T21:38:35.286Z,6.10
2017-09-18T21:41:09.919Z,7.43
2017-09-18T21:43:47.265Z,7.35
2017-09-18T21:46:28.531Z,5.82
2017-09-18T21:49:03.503Z,7.45
2017-09-18T21:51:39.099Z,6.40
2017-09-18T21:54:14.383Z,6.35
2017-09-18T21:56:51.437Z,7.22
2017-09-18T21:59:27.935Z,9.48
2017-09-18T22:02:05.276Z,5.20
2017-09-18T22:04:39.721Z,5.57
2017-09-18T22:07:16.165Z,6.07
2017-09-18T22:09:52.425Z,7.32
2017-09-18T22:12:30.587Z,7.12
2017-09-18T22:15:06.033Z,10.07
2017-09-18T22:17:41.849Z,6.15
2017-09-18T22:20:20.037Z,10.63
2017-09-18T22:22:54.502Z,4.68
2017-09-18T22:25:28.252Z,4.82
2017-09-18T22:28:02.575Z,8.55
2017-09-18T22:30:36.895Z,6.55
2017-09-18T22:33:14.396Z,8.18
2017-09-18T22:35:50.861Z,6.05
2017-09-18T22:38:25.545Z,5.80
2017-09-18T22:41:01.333Z,7.05
2017-09-18T22:43:37.814Z,6.30
2017-09-18T22:46:12.257Z,7.72
2017-09-18T22:48:49.215Z,4.95
2017-09-18T22:51:24.778Z,5.70
2017-09-18T22:53:59.181Z,3.55
2017-09-18T22:56:34.106Z,5.80
2017-09-18T22:59:09.741Z,6.22
2017-09-18T23:01:44.425Z,7.10
2017-09-18T23:04:18.250Z,6.35
2017-09-18T23:06:53.800Z,4.53
2017-09-18T23:09:28.686Z,3.85
2017-09-18T23:12:03.517Z,7.43
2017-09-18T23:14:38.221Z,4.15
2017-09-18T23:17:13.441Z,6.80
2017-09-18T23:19:48.163Z,5.00
2017-09-18T23:22:24.154Z,4.95
2017-09-18T23:24:59.181Z,6.35
2017-09-18T23:27:34.116Z,5.75
2017-09-18T23:30:07.906Z,4.30
2017-09-18T23:32:44.369Z,5.25
2017-09-18T23:35:19.674Z,5.05
2017-09-18T23:37:56.505Z,5.82
2017-09-18T23:40:30.817Z,5.75
2017-09-18T23:43:05.080Z,5.20
2017-09-18T23:45:39.130Z,5.32
2017-09-18T23:48:15.739Z,7.70
2017-09-18T23:50:50.543Z,6.90
2017-09-18T23:53:26.945Z,5.07
2017-09-18T23:56:03.643Z,7.95
2017-09-18T23:58:38.881Z,4.18
